createdAt,value
2019-03-06T00:02:04.486Z,6.43
2019-03-06T00:04:34.613Z,7.47
2019-03-06T00:07:04.939Z,7.20
2019-03-06T00:09:34.537Z,7.40
2019-03-06T00:12:04.253Z,6.70
2019-03-06T00:14:33.816Z,7.00
2019-03-06T00:17:12.467Z,6.73
2019-03-06T00:19:43.012Z,6.83
2019-03-06T00:22:13.414Z,7.00
2019-03-06T00:24:43.461Z,7.63
2019-03-06T00:27:13.475Z,7.20
2019-03-06T00:29:43.649Z,7.28
2019-03-06T00:32:13.988Z,7.93
2019-03-06T00:34:43.865Z,6.20
2019-03-06T00:37:14.037Z,6.47
2019-03-06T00:40:01.729Z,7.63
2019-03-06T00:42:35.680Z,6.73
2019-03-06T00:45:07.040Z,7.03
2019-03-06T00:47:37.453Z,6.67
2019-03-06T00:50:07.742Z,7.40
2019-03-06T00:52:38.178Z,6.63
2019-03-06T00:55:08.094Z,6.67
2019-03-06T00:57:37.990Z,6.30
2019-03-06T01:00:08.449Z,6.77
2019-03-06T01:02:38.115Z,6.85
2019-03-06T01:05:08.104Z,7.00
2019-03-06T01:07:37.655Z,7.50
2019-03-06T01:10:08.654Z,7.60
2019-03-06T01:12:44.556Z,7.57
2019-03-06T01:15:14.997Z,7.27
2019-03-06T01:17:44.695Z,7.00
2019-03-06T01:20:14.516Z,6.73
2019-03-06T01:22:44.136Z,7.10
2019-03-06T01:25:13.844Z,6.53
2019-03-06T01:27:43.516Z,5.77
2019-03-06T01:30:15.377Z,6.20
2019-03-06T01:32:46.604Z,6.17
2019-03-06T01:35:50.652Z,6.33
2019-03-06T01:38:38.253Z,6.63
2019-03-06T01:41:20.871Z,5.67
2019-03-06T01:43:55.272Z,6.17
2019-03-06T01:46:25.036Z,6.97
2019-03-06T01:48:54.584Z,6.20
2019-03-06T01:51:24.429Z,6.57
2019-03-06T01:53:54.657Z,7.20
2019-03-06T01:56:24.466Z,6.23
2019-03-06T01:58:54.013Z,6.60
2019-03-06T02:01:23.712Z,6.40
2019-03-06T02:03:53.593Z,6.93
2019-03-06T02:06:23.480Z,6.73
2019-03-06T02:08:53.161Z,6.10
2019-03-06T02:11:22.715Z,5.97
2019-03-06T02:13:53.329Z,5.57
2019-03-06T02:16:23.260Z,6.13
2019-03-06T02:18:53.068Z,6.40
2019-03-06T02:21:22.900Z,5.73
2019-03-06T02:23:52.526Z,5.87
2019-03-06T02:26:22.169Z,5.83
2019-03-06T02:28:52.417Z,5.60
2019-03-06T02:31:21.957Z,5.43
2019-03-06T02:33:51.512Z,5.63
2019-03-06T02:36:21.050Z,5.73
2019-03-06T02:38:50.607Z,4.80
2019-03-06T02:41:20.537Z,4.30
2019-03-06T02:43:50.078Z,5.13
2019-03-06T02:46:19.761Z,4.67
2019-03-06T02:48:49.580Z,4.63
2019-03-06T02:51:19.206Z,4.27
2019-03-06T02:53:49.310Z,4.03
2019-03-06T02:56:18.858Z,4.73
2019-03-06T02:58:57.164Z,5.13
2019-03-06T03:01:45.797Z,5.47
2019-03-06T03:04:43.830Z,5.37
2019-03-06T03:07:16.420Z,5.63
2019-03-06T03:09:46.033Z,4.97
2019-03-06T03:12:15.897Z,4.80
2019-03-06T03:14:45.552Z,4.40
2019-03-06T03:17:15.165Z,4.77
2019-03-06T03:19:45.058Z,4.80
2019-03-06T03:22:14.617Z,3.70
2019-03-06T03:24:44.226Z,4.60
2019-03-06T03:27:14.086Z,4.07
2019-03-06T03:29:43.637Z,4.87
2019-03-06T03:32:14.521Z,3.90
2019-03-06T03:34:44.342Z,3.63
2019-03-06T03:37:14.141Z,4.70
2019-03-06T03:39:43.977Z,4.90
2019-03-06T03:42:13.979Z,3.70
2019-03-06T03:44:43.706Z,4.27
2019-03-06T03:47:13.260Z,3.47
2019-03-06T03:49:43.185Z,3.73
2019-03-06T03:52:12.737Z,4.87
2019-03-06T03:54:42.623Z,4.00
2019-03-06T03:57:12.500Z,4.33
2019-03-06T03:59:42.057Z,4.40
2019-03-06T04:02:11.601Z,3.37
2019-03-06T04:04:41.143Z,3.60
2019-03-06T04:07:10.700Z,3.63
2019-03-06T04:09:40.612Z,3.90
2019-03-06T04:12:10.156Z,3.63
2019-03-06T04:14:39.983Z,3.53
2019-03-06T04:17:09.521Z,3.10
2019-03-06T04:19:39.100Z,3.73
2019-03-06T04:22:09.211Z,3.43
2019-03-06T04:24:38.771Z,3.57
2019-03-06T04:27:08.635Z,3.20
2019-03-06T04:29:38.244Z,3.40
2019-03-06T04:32:07.793Z,3.63
2019-03-06T04:34:37.617Z,3.17
2019-03-06T04:37:07.239Z,3.27
2019-03-06T04:39:37.122Z,3.67
2019-03-06T04:42:06.736Z,3.30
2019-03-06T04:44:36.476Z,3.57
2019-03-06T04:47:06.597Z,3.33
2019-03-06T04:49:36.167Z,3.20
2019-03-06T04:52:05.944Z,3.37
2019-03-06T04:54:35.725Z,3.90
2019-03-06T04:57:05.640Z,3.90
2019-03-06T04:59:35.172Z,3.13
2019-03-06T05:02:04.717Z,4.17
2019-03-06T05:04:34.977Z,3.33
2019-03-06T05:07:04.593Z,3.30
2019-03-06T05:09:34.123Z,3.73
2019-03-06T05:12:03.993Z,3.30
2019-03-06T05:14:33.544Z,3.20
2019-03-06T05:17:11.804Z,3.67
2019-03-06T05:19:41.623Z,3.73
2019-03-06T05:22:11.841Z,3.30
2019-03-06T05:24:41.953Z,2.80
2019-03-06T05:27:11.501Z,3.50
2019-03-06T05:29:41.042Z,3.47
2019-03-06T05:32:29.940Z,3.60
2019-03-06T05:35:05.285Z,3.33
2019-03-06T05:38:04.624Z,3.57
2019-03-06T05:40:34.176Z,3.37
2019-03-06T05:43:03.753Z,3.47
2019-03-06T05:45:33.378Z,3.43
2019-03-06T05:48:03.597Z,4.27
2019-03-06T05:50:33.132Z,3.37
2019-03-06T05:53:03.017Z,4.00
2019-03-06T05:55:32.564Z,3.73
2019-03-06T05:58:02.443Z,3.50
2019-03-06T06:00:32.076Z,3.90
2019-03-06T06:03:01.605Z,2.90
2019-03-06T06:05:31.473Z,3.53
2019-03-06T06:08:01.024Z,3.60
2019-03-06T06:10:30.644Z,2.83
2019-03-06T06:13:00.492Z,3.37
2019-03-06T06:15:30.028Z,3.77
2019-03-06T06:17:59.580Z,2.60
2019-03-06T06:20:29.719Z,3.17
2019-03-06T06:23:07.934Z,3.00
2019-03-06T06:25:37.467Z,3.23
2019-03-06T06:28:07.076Z,3.10
2019-03-06T06:30:36.985Z,2.70
2019-03-06T06:33:06.592Z,3.60
2019-03-06T06:35:36.133Z,2.80
2019-03-06T06:38:05.977Z,3.30
2019-03-06T06:40:35.818Z,3.07
2019-03-06T06:43:05.807Z,3.00
2019-03-06T06:45:35.923Z,3.40
2019-03-06T06:48:13.248Z,3.30
2019-03-06T06:51:01.273Z,3.43
2019-03-06T06:53:33.433Z,3.17
2019-03-06T06:56:40.394Z,3.63
2019-03-06T06:59:21.000Z,3.13
2019-03-06T07:02:23.639Z,2.53
2019-03-06T07:05:34.388Z,3.37
2019-03-06T07:08:23.315Z,3.90
2019-03-06T07:10:58.468Z,3.33
2019-03-06T07:13:50.680Z,3.90
2019-03-06T07:16:49.529Z,3.07
2019-03-06T07:19:49.587Z,3.07
2019-03-06T07:22:41.033Z,3.90
2019-03-06T07:25:28.246Z,3.60
2019-03-06T07:28:15.885Z,3.73
2019-03-06T07:31:13.484Z,3.43
2019-03-06T07:33:58.394Z,3.67
2019-03-06T07:36:49.621Z,3.30
2019-03-06T07:39:29.505Z,3.50
2019-03-06T07:42:17.437Z,3.13
2019-03-06T07:45:42.621Z,3.47
2019-03-06T07:48:37.644Z,3.80
2019-03-06T07:51:38.560Z,3.03
2019-03-06T07:54:17.313Z,3.20
2019-03-06T07:57:32.892Z,3.53
2019-03-06T08:00:27.628Z,2.97
2019-03-06T08:03:07.278Z,2.53
2019-03-06T08:05:40.120Z,2.93
2019-03-06T08:08:09.654Z,3.90
2019-03-06T08:10:40.549Z,3.77
2019-03-06T08:13:26.200Z,2.93
2019-03-06T08:16:04.933Z,3.07
2019-03-06T08:18:53.318Z,3.30
2019-03-06T08:21:37.759Z,2.57
2019-03-06T08:24:25.909Z,2.60
2019-03-06T08:26:55.709Z,2.83
2019-03-06T08:29:25.929Z,2.57
2019-03-06T08:31:58.244Z,2.70
2019-03-06T08:34:27.785Z,3.00
2019-03-06T08:37:09.597Z,2.30
2019-03-06T08:39:39.208Z,3.00
2019-03-06T08:42:08.896Z,2.73
2019-03-06T08:44:38.749Z,2.93
2019-03-06T08:47:23.716Z,2.27
2019-03-06T08:50:12.372Z,2.40
2019-03-06T08:52:46.417Z,2.77
2019-03-06T08:55:38.137Z,2.10
2019-03-06T08:58:30.409Z,2.20
2019-03-06T09:01:48.563Z,1.90
2019-03-06T09:04:46.372Z,3.57
2019-03-06T09:07:41.684Z,1.90
2019-03-06T09:10:38.368Z,1.80
2019-03-06T09:13:22.825Z,1.60
2019-03-06T09:16:10.947Z,1.97
2019-03-06T09:19:00.034Z,1.50
2019-03-06T09:21:40.589Z,1.80
2019-03-06T09:24:29.272Z,1.70
2019-03-06T09:27:27.217Z,1.23
2019-03-06T09:30:15.775Z,1.20
2019-03-06T09:32:58.733Z,1.10
2019-03-06T09:36:03.109Z,0.97
2019-03-06T09:38:42.516Z,1.70
2019-03-06T09:41:29.811Z,1.30
2019-03-06T09:44:17.444Z,1.27
2019-03-06T09:47:04.854Z,0.93
2019-03-06T09:49:50.108Z,0.97
2019-03-06T09:52:57.378Z,1.20
2019-03-06T09:55:37.496Z,1.27
2019-03-06T09:58:21.992Z,0.83
2019-03-06T10:01:13.715Z,1.10
2019-03-06T10:04:01.096Z,1.30
2019-03-06T10:07:08.028Z,1.10
2019-03-06T10:09:44.476Z,1.10
2019-03-06T10:12:24.020Z,0.97
2019-03-06T10:15:01.091Z,0.90
2019-03-06T10:17:40.504Z,1.60
2019-03-06T10:20:13.935Z,0.90
2019-03-06T10:22:43.855Z,0.90
2019-03-06T10:25:13.603Z,0.97
2019-03-06T10:27:43.592Z,1.10
2019-03-06T10:30:14.411Z,0.77
2019-03-06T10:32:44.626Z,0.80
2019-03-06T10:35:16.283Z,0.97
2019-03-06T10:37:48.613Z,0.87
2019-03-06T10:40:18.475Z,0.80
2019-03-06T10:42:48.112Z,0.83
2019-03-06T10:45:18.276Z,1.03
2019-03-06T10:47:48.504Z,1.00
2019-03-06T10:50:26.341Z,1.20
2019-03-06T10:52:50.229Z,0.60
2019-03-06T10:55:41.497Z,1.90
2019-03-06T10:58:11.517Z,0.90
2019-03-06T11:00:49.015Z,0.60
2019-03-06T11:03:18.831Z,0.90
2019-03-06T11:05:49.499Z,0.70
2019-03-06T11:08:19.876Z,1.07
2019-03-06T11:10:49.825Z,0.80
2019-03-06T11:13:19.876Z,0.70
2019-03-06T11:15:58.561Z,0.70
2019-03-06T11:18:28.649Z,0.77
2019-03-06T11:20:58.544Z,0.70
2019-03-06T11:23:28.564Z,0.60
2019-03-06T11:25:58.488Z,0.40
2019-03-06T11:28:28.493Z,0.70
2019-03-06T11:30:59.169Z,1.10
2019-03-06T11:33:28.973Z,0.60
2019-03-06T11:35:59.548Z,0.50
2019-03-06T11:38:29.535Z,0.90
2019-03-06T11:41:00.169Z,0.70
2019-03-06T11:43:30.384Z,0.90
2019-03-06T11:46:00.331Z,1.47
2019-03-06T11:48:30.668Z,0.83
2019-03-06T11:51:00.312Z,1.37
2019-03-06T11:53:41.552Z,1.43
2019-03-06T11:56:11.573Z,2.53
2019-03-06T11:58:41.821Z,4.80
2019-03-06T12:01:18.152Z,3.53
2019-03-06T12:03:48.528Z,1.30
2019-03-06T12:06:18.506Z,0.90
2019-03-06T12:08:48.409Z,1.03
2019-03-06T12:11:18.522Z,0.70
2019-03-06T12:13:48.644Z,0.90
2019-03-06T12:16:20.072Z,0.90
2019-03-06T12:19:03.716Z,1.60
2019-03-06T12:21:33.480Z,0.90
2019-03-06T12:24:09.256Z,0.83
2019-03-06T12:26:39.074Z,0.70
2019-03-06T12:29:09.324Z,0.70
2019-03-06T12:31:38.940Z,1.17
2019-03-06T12:34:08.500Z,0.73
2019-03-06T12:36:38.453Z,0.67
2019-03-06T12:39:08.161Z,0.60
2019-03-06T12:41:38.872Z,0.70
2019-03-06T12:44:10.617Z,0.97
2019-03-06T12:46:39.902Z,0.70
2019-03-06T12:49:11.552Z,0.80
2019-03-06T12:51:41.519Z,0.77
2019-03-06T12:54:11.424Z,1.00
2019-03-06T12:56:41.695Z,1.10
2019-03-06T12:59:11.473Z,0.57
2019-03-06T13:01:41.092Z,1.67
2019-03-06T13:04:10.980Z,0.90
2019-03-06T13:06:40.897Z,0.53
2019-03-06T13:09:20.552Z,0.70
2019-03-06T13:11:50.408Z,1.20
2019-03-06T13:14:20.660Z,0.70
2019-03-06T13:16:54.060Z,1.10
2019-03-06T13:19:23.973Z,1.07
2019-03-06T13:21:53.592Z,0.73
2019-03-06T13:24:23.196Z,0.70
2019-03-06T13:26:52.760Z,0.70
2019-03-06T13:29:23.020Z,0.87
2019-03-06T13:31:53.010Z,0.70
2019-03-06T13:34:50.327Z,0.67
2019-03-06T13:37:12.720Z,0.83
2019-03-06T13:39:42.281Z,0.73
2019-03-06T13:42:11.900Z,0.87
2019-03-06T13:44:41.801Z,0.93
2019-03-06T13:47:11.763Z,1.20
2019-03-06T13:49:41.337Z,1.60
2019-03-06T13:52:10.971Z,1.20
2019-03-06T13:54:40.792Z,0.97
2019-03-06T13:57:17.066Z,0.80
2019-03-06T13:59:46.620Z,1.70
2019-03-06T14:02:16.876Z,1.80
2019-03-06T14:04:47.090Z,1.60
2019-03-06T14:07:22.948Z,1.57
2019-03-06T14:09:52.945Z,1.70
2019-03-06T14:12:22.608Z,1.60
2019-03-06T14:14:52.669Z,1.73
2019-03-06T14:17:22.628Z,1.33
2019-03-06T14:19:52.536Z,1.20
2019-03-06T14:22:22.928Z,1.20
2019-03-06T14:24:52.853Z,0.80
2019-03-06T14:27:22.972Z,1.00
2019-03-06T14:29:53.384Z,1.10
2019-03-06T14:32:23.766Z,1.40
2019-03-06T14:34:54.108Z,1.10
2019-03-06T14:37:23.843Z,1.00
2019-03-06T14:39:54.441Z,1.27
2019-03-06T14:42:24.610Z,1.10
2019-03-06T14:44:57.750Z,1.00
2019-03-06T14:47:27.465Z,1.10
2019-03-06T14:49:57.426Z,1.13
2019-03-06T14:52:27.131Z,0.80
2019-03-06T14:54:57.446Z,1.00
2019-03-06T14:57:27.404Z,1.17
2019-03-06T14:59:57.481Z,1.37
2019-03-06T15:02:27.060Z,1.20
2019-03-06T15:04:57.003Z,1.73
2019-03-06T15:07:26.652Z,1.77
2019-03-06T15:09:56.388Z,1.10
2019-03-06T15:12:26.337Z,0.90
2019-03-06T15:15:14.700Z,0.87
2019-03-06T15:17:44.710Z,1.00
2019-03-06T15:20:16.790Z,0.70
2019-03-06T15:22:47.189Z,0.80
2019-03-06T15:25:21.171Z,0.73
2019-03-06T15:27:51.204Z,0.90
2019-03-06T15:30:21.020Z,0.50
2019-03-06T15:32:50.823Z,0.80
2019-03-06T15:35:21.396Z,1.20
2019-03-06T15:37:51.264Z,0.70
2019-03-06T15:40:23.868Z,0.53
2019-03-06T15:42:54.892Z,0.80
2019-03-06T15:45:28.620Z,0.87
2019-03-06T15:47:59.438Z,0.50
2019-03-06T15:50:29.536Z,0.67
2019-03-06T15:52:59.097Z,0.83
2019-03-06T15:55:29.549Z,0.97
2019-03-06T15:57:59.365Z,0.80
2019-03-06T16:00:33.332Z,0.70
2019-03-06T16:03:04.950Z,0.80
2019-03-06T16:05:35.760Z,0.47
2019-03-06T16:08:06.575Z,0.57
2019-03-06T16:10:36.820Z,0.87
2019-03-06T16:13:07.384Z,0.63
2019-03-06T16:15:37.273Z,0.40
2019-03-06T16:18:07.601Z,0.80
2019-03-06T16:20:38.100Z,0.67
2019-03-06T16:23:08.340Z,0.70
2019-03-06T16:25:40.176Z,1.07
2019-03-06T16:28:26.334Z,1.37
2019-03-06T16:30:56.128Z,0.90
2019-03-06T16:33:25.661Z,0.90
2019-03-06T16:35:56.076Z,0.90
2019-03-06T16:38:34.186Z,1.50
2019-03-06T16:41:03.908Z,1.80
2019-03-06T16:43:33.772Z,1.20
2019-03-06T16:46:03.384Z,1.10
2019-03-06T16:48:33.601Z,1.20
2019-03-06T16:51:03.505Z,2.20
2019-03-06T16:53:33.228Z,1.70
2019-03-06T16:56:02.844Z,1.40
2019-03-06T16:58:32.435Z,0.93
2019-03-06T17:01:03.261Z,1.27
2019-03-06T17:03:33.504Z,1.20
2019-03-06T17:06:03.297Z,1.40
2019-03-06T17:08:33.557Z,1.60
2019-03-06T17:11:03.960Z,1.50
2019-03-06T17:13:34.057Z,1.43
2019-03-06T17:16:03.835Z,1.30
2019-03-06T17:18:33.881Z,1.77
2019-03-06T17:21:03.668Z,2.27
2019-03-06T17:23:33.711Z,2.77
2019-03-06T17:26:03.648Z,2.40
2019-03-06T17:28:34.154Z,2.10
2019-03-06T17:31:04.074Z,1.80
2019-03-06T17:33:33.989Z,1.30
2019-03-06T17:36:03.786Z,1.30
2019-03-06T17:38:33.444Z,1.70
2019-03-06T17:41:03.310Z,1.10
2019-03-06T17:43:33.424Z,1.10
2019-03-06T17:46:03.268Z,1.20
2019-03-06T17:48:32.816Z,1.37
2019-03-06T17:51:02.373Z,1.60
2019-03-06T17:53:32.205Z,1.10
2019-03-06T17:56:02.432Z,1.20
2019-03-06T17:58:31.980Z,1.00
2019-03-06T18:01:11.188Z,1.10
2019-03-06T18:03:51.606Z,1.30
2019-03-06T18:06:21.733Z,0.90
2019-03-06T18:08:51.524Z,1.17
2019-03-06T18:11:21.164Z,1.27
2019-03-06T18:13:51.641Z,1.07
2019-03-06T18:16:21.186Z,0.90
2019-03-06T18:18:51.263Z,1.23
2019-03-06T18:21:20.870Z,1.30
2019-03-06T18:23:50.412Z,1.10
2019-03-06T18:26:20.289Z,1.50
2019-03-06T18:28:49.895Z,2.13
2019-03-06T18:31:19.908Z,1.83
2019-03-06T18:33:49.984Z,1.89
2019-03-06T18:36:20.154Z,9.60
2019-03-06T18:38:49.952Z,4.57
2019-03-06T18:41:19.631Z,2.63
2019-03-06T18:43:49.632Z,2.60
2019-03-06T18:46:19.610Z,2.03
2019-03-06T18:48:49.480Z,2.10
2019-03-06T18:51:19.420Z,2.03
2019-03-06T18:53:49.084Z,1.30
2019-03-06T18:56:18.945Z,1.50
2019-03-06T18:58:48.645Z,1.40
2019-03-06T19:01:18.228Z,1.10
2019-03-06T19:03:49.588Z,1.33
2019-03-06T19:06:20.843Z,1.67
2019-03-06T19:08:50.965Z,2.60
2019-03-06T19:11:20.761Z,2.27
2019-03-06T19:13:50.678Z,2.03
2019-03-06T19:16:20.874Z,1.93
2019-03-06T19:18:51.959Z,1.83
2019-03-06T19:21:22.785Z,2.50
2019-03-06T19:23:52.900Z,2.47
2019-03-06T19:26:22.442Z,2.90
2019-03-06T19:28:52.128Z,3.07
2019-03-06T19:31:21.680Z,3.55
2019-03-06T19:33:51.533Z,2.73
2019-03-06T19:36:21.138Z,3.07
2019-03-06T19:38:50.678Z,3.10
2019-03-06T19:41:20.444Z,3.83
2019-03-06T19:43:50.048Z,4.15
2019-03-06T19:46:26.662Z,4.50
2019-03-06T19:48:56.244Z,3.57
2019-03-06T19:51:26.305Z,2.33
2019-03-06T19:53:57.193Z,2.43
2019-03-06T19:56:27.100Z,3.27
2019-03-06T19:58:57.060Z,3.00
2019-03-06T20:01:28.841Z,2.97
2019-03-06T20:03:58.488Z,2.67
2019-03-06T20:06:28.112Z,2.80
2019-03-06T20:08:58.006Z,2.60
2019-03-06T20:11:28.117Z,2.27
2019-03-06T20:13:57.760Z,2.30
2019-03-06T20:16:28.053Z,1.93
2019-03-06T20:18:57.649Z,1.90
2019-03-06T20:21:37.005Z,2.00
2019-03-06T20:24:29.632Z,1.97
2019-03-06T20:26:59.548Z,1.90
2019-03-06T20:29:29.238Z,1.67
2019-03-06T20:32:00.400Z,1.40
2019-03-06T20:34:30.776Z,1.57
2019-03-06T20:37:00.592Z,1.23
2019-03-06T20:39:30.265Z,1.40
2019-03-06T20:42:05.273Z,1.47
2019-03-06T20:44:35.089Z,1.77
2019-03-06T20:47:04.897Z,1.43
2019-03-06T20:49:34.768Z,1.57
2019-03-06T20:52:04.528Z,1.60
2019-03-06T20:54:41.003Z,1.73
2019-03-06T20:57:11.517Z,1.70
2019-03-06T20:59:42.621Z,1.67
2019-03-06T21:02:12.981Z,2.20
2019-03-06T21:04:42.564Z,3.47
2019-03-06T21:07:18.109Z,2.97
2019-03-06T21:09:48.048Z,3.03
2019-03-06T21:12:17.592Z,3.33
2019-03-06T21:14:47.250Z,3.53
2019-03-06T21:17:16.916Z,3.00
2019-03-06T21:19:47.405Z,4.87
2019-03-06T21:22:17.620Z,4.60
2019-03-06T21:24:47.275Z,5.07
2019-03-06T21:27:17.485Z,2.90
2019-03-06T21:29:49.296Z,2.37
2019-03-06T21:32:18.932Z,2.50
2019-03-06T21:34:48.702Z,2.13
2019-03-06T21:37:18.257Z,2.07
2019-03-06T21:39:56.757Z,2.10
2019-03-06T21:42:26.293Z,2.63
2019-03-06T21:44:56.149Z,2.17
2019-03-06T21:47:26.065Z,1.83
2019-03-06T21:49:56.391Z,1.70
2019-03-06T21:52:26.261Z,1.40
2019-03-06T21:54:55.903Z,1.80
2019-03-06T21:57:25.719Z,1.70
2019-03-06T21:59:55.531Z,1.60
2019-03-06T22:02:34.261Z,1.92
2019-03-06T22:05:03.971Z,1.50
2019-03-06T22:07:33.597Z,1.50
2019-03-06T22:10:04.434Z,1.60
2019-03-06T22:12:33.981Z,1.37
2019-03-06T22:15:05.738Z,1.30
2019-03-06T22:17:35.671Z,1.20
2019-03-06T22:20:06.377Z,1.20
2019-03-06T22:22:36.150Z,1.70
2019-03-06T22:25:06.280Z,1.40
2019-03-06T22:27:36.566Z,1.70
2019-03-06T22:30:07.954Z,1.70
2019-03-06T22:32:38.053Z,2.00
2019-03-06T22:35:08.061Z,1.47
2019-03-06T22:37:37.682Z,2.20
2019-03-06T22:40:07.727Z,2.43
2019-03-06T22:42:37.998Z,2.50
2019-03-06T22:45:14.345Z,2.17
2019-03-06T22:47:43.985Z,1.67
2019-03-06T22:50:14.120Z,2.63
2019-03-06T22:52:45.117Z,1.77
2019-03-06T22:55:16.444Z,1.50
2019-03-06T22:57:46.778Z,2.43
2019-03-06T23:00:34.621Z,3.80
2019-03-06T23:03:05.246Z,3.43
2019-03-06T23:05:35.672Z,4.73
2019-03-06T23:08:05.666Z,3.33
2019-03-06T23:10:35.456Z,3.20
2019-03-06T23:13:05.150Z,2.17
2019-03-06T23:15:36.704Z,2.37
2019-03-06T23:18:06.629Z,2.47
2019-03-06T23:20:36.182Z,1.87
2019-03-06T23:23:06.189Z,1.77
2019-03-06T23:25:35.997Z,1.67
2019-03-06T23:28:06.036Z,1.50
2019-03-06T23:30:35.576Z,2.20
2019-03-06T23:33:05.415Z,2.47
2019-03-06T23:35:35.352Z,2.43
2019-03-06T23:38:04.904Z,2.60
2019-03-06T23:40:34.547Z,2.10
2019-03-06T23:43:04.260Z,2.00
2019-03-06T23:45:34.279Z,3.03
2019-03-06T23:48:03.844Z,2.97
2019-03-06T23:50:33.388Z,6.00
2019-03-06T23:53:07.180Z,4.53
2019-03-06T23:55:36.908Z,2.47
2019-03-06T23:58:06.821Z,2.27
